Time;durP1;ratioP1;P1;durP2;ratioP2;P2;SDS_P1;SDS_P2;PMS_P1;PMS_P2;Temp;Humidity;BMP_temperature;BMP_pressure;BME280_temperature;BME280_humidity;BME280_pressure;Samples;Min_cycle;Max_cycle;Signal;HPM_P1;HPM_P2
2022/03/10 00:00:07;;;;;;;16.93;12.03;;;8.40;49.80;;;;;;5026403;28;20421;-40
2022/03/10 00:02:32;;;;;;;15.20;11.30;;;8.30;49.90;;;;;;5023461;28;20425;-41
2022/03/10 00:04:58;;;;;;;19.40;11.13;;;8.10;49.50;;;;;;5022346;28;20504;-43
2022/03/10 00:07:23;;;;;;;15.60;11.73;;;8.50;49.80;;;;;;5024320;28;20240;-45
2022/03/10 00:09:49;;;;;;;15.13;11.20;;;8.50;49.90;;;;;;5027645;28;20221;-41
2022/03/10 00:12:15;;;;;;;16.40;11.30;;;8.40;49.90;;;;;;5028473;28;20603;-40
2022/03/10 00:14:40;;;;;;;16.77;11.53;;;8.20;49.60;;;;;;5028531;28;20210;-40
2022/03/10 00:17:06;;;;;;;15.50;11.23;;;8.50;49.80;;;;;;5028852;28;20186;-40
2022/03/10 00:19:32;;;;;;;15.63;11.67;;;8.30;49.60;;;;;;5026025;28;20741;-40
2022/03/10 00:21:58;;;;;;;15.47;11.87;;;8.40;49.70;;;;;;5013773;28;20186;-41
2022/03/10 00:24:24;;;;;;;16.20;11.50;;;8.20;49.60;;;;;;5027280;28;20580;-44
2022/03/10 00:26:50;;;;;;;13.43;10.50;;;8.30;49.80;;;;;;5028004;28;20508;-45
2022/03/10 00:29:16;;;;;;;16.73;11.93;;;8.20;49.70;;;;;;5028128;28;20206;-44
2022/03/10 00:31:41;;;;;;;16.73;11.90;;;8.20;49.80;;;;;;5027308;28;20190;-40
2022/03/10 00:34:08;;;;;;;15.03;11.43;;;8.30;50.20;;;;;;5027885;28;20182;-39
2022/03/10 00:36:33;;;;;;;15.30;11.80;;;8.20;50.60;;;;;;5016143;28;20688;-40
2022/03/10 00:38:59;;;;;;;13.83;10.97;;;8.20;50.50;;;;;;5026618;28;20421;-42
2022/03/10 00:41:25;;;;;;;14.27;11.57;;;8.00;50.50;;;;;;5027410;28;20194;-40
2022/03/10 00:43:51;;;;;;;14.80;10.93;;;8.10;50.60;;;;;;5027989;28;20276;-41
2022/03/10 00:46:16;;;;;;;14.60;11.57;;;8.20;50.70;;;;;;5027768;28;20248;-40
2022/03/10 00:48:42;;;;;;;14.60;11.73;;;8.30;51.00;;;;;;5027826;28;20190;-41
2022/03/10 00:51:08;;;;;;;16.23;12.30;;;8.20;50.80;;;;;;5017215;28;20191;-42
2022/03/10 00:53:34;;;;;;;15.23;12.03;;;8.10;50.70;;;;;;5023282;28;20178;-44
2022/03/10 00:56:00;;;;;;;15.83;11.53;;;8.20;50.60;;;;;;5026432;28;20627;-42
2022/03/10 00:58:25;;;;;;;15.87;12.07;;;8.00;50.50;;;;;;5026420;28;20440;-41
2022/03/10 01:00:51;;;;;;;16.07;11.60;;;8.10;50.70;;;;;;5027565;28;20253;-45
2022/03/10 01:03:18;;;;;;;14.83;12.37;;;8.10;50.80;;;;;;5027209;28;20977;-41
2022/03/10 01:05:44;;;;;;;17.90;12.43;;;8.20;51.10;;;;;;5020341;28;20445;-43
2022/03/10 01:08:09;;;;;;;17.20;12.10;;;7.90;51.00;;;;;;5022160;28;20424;-43
2022/03/10 01:10:35;;;;;;;14.90;11.30;;;8.10;51.30;;;;;;5008377;28;20422;-41
2022/03/10 01:13:02;;;;;;;16.97;11.60;;;8.10;51.30;;;;;;5027383;28;20224;-40
2022/03/10 01:15:28;;;;;;;16.37;12.10;;;8.10;51.60;;;;;;5027305;28;20527;-40
2022/03/10 01:17:54;;;;;;;14.70;11.60;;;7.90;51.50;;;;;;5027103;28;20424;-43
2022/03/10 01:20:22;;;;;;;13.67;11.00;;;7.80;51.70;;;;;;5023460;28;20441;-43
2022/03/10 01:22:48;;;;;;;15.40;11.90;;;7.90;51.70;;;;;;5022685;28;20458;-44
2022/03/10 01:25:14;;;;;;;14.97;11.27;;;7.80;51.60;;;;;;5026519;28;20504;-44
2022/03/10 01:27:41;;;;;;;17.40;11.77;;;8.00;51.70;;;;;;5025916;28;20421;-43
2022/03/10 01:30:09;;;;;;;17.60;12.30;;;8.10;51.90;;;;;;5026419;28;20428;-45
2022/03/10 01:32:35;;;;;;;16.53;11.90;;;8.00;52.00;;;;;;5026939;28;20416;-42
2022/03/10 01:35:05;;;;;;;16.10;12.17;;;7.80;51.70;;;;;;5027210;28;20827;-42
2022/03/10 01:37:36;;;;;;;15.00;12.53;;;8.00;52.00;;;;;;5021273;28;20413;-40
2022/03/10 01:40:06;;;;;;;18.10;12.27;;;7.90;52.00;;;;;;5029255;28;20417;-40
2022/03/10 01:42:32;;;;;;;17.77;12.53;;;7.90;52.20;;;;;;5031636;28;20413;-40
2022/03/10 01:44:58;;;;;;;19.43;12.53;;;8.00;52.20;;;;;;5029448;28;20427;-42
2022/03/10 01:47:23;;;;;;;17.90;11.77;;;7.70;52.00;;;;;;5031672;28;20293;-40
2022/03/10 01:49:49;;;;;;;14.90;11.50;;;8.10;52.20;;;;;;5029348;28;20252;-41
2022/03/10 01:52:15;;;;;;;18.00;11.87;;;7.70;51.80;;;;;;5022343;28;20201;-43
2022/03/10 01:54:41;;;;;;;14.50;11.03;;;7.90;52.10;;;;;;5030639;28;20193;-40
2022/03/10 01:57:07;;;;;;;20.03;13.30;;;7.90;52.20;;;;;;5030924;28;20503;-42
2022/03/10 01:59:33;;;;;;;14.53;11.50;;;7.90;52.20;;;;;;5030024;28;20425;-41
2022/03/10 02:01:59;;;;;;;15.97;11.80;;;7.80;52.20;;;;;;5029935;28;20834;-40
2022/03/10 02:04:25;;;;;;;16.60;12.10;;;7.70;51.80;;;;;;5030967;28;20600;-40
2022/03/10 02:06:52;;;;;;;17.20;11.03;;;7.70;52.10;;;;;;5021221;28;20462;-39
2022/03/10 02:12:04;;;;;;;17.13;11.07;;;7.60;52.90;;;;;;5030164;28;20420;-40
2022/03/10 02:17:20;;;;;;;15.90;12.07;;;7.30;53.30;;;;;;5030670;28;20425;-41
2022/03/10 02:19:54;;;;;;;16.40;12.20;;;7.10;55.30;;;;;;5030285;28;20512;-40
2022/03/10 02:22:21;;;;;;;17.63;12.77;;;6.60;55.90;;;;;;5020404;28;20815;-40
2022/03/10 02:24:47;;;;;;;16.10;12.07;;;6.60;57.30;;;;;;5029317;28;20425;-40
2022/03/10 02:27:24;;;;;;;15.93;11.87;;;6.20;57.90;;;;;;5030246;28;20429;-40
2022/03/10 02:30:00;;;;;;;14.63;11.47;;;6.50;58.90;;;;;;5030004;28;20433;-40
2022/03/10 02:32:26;;;;;;;15.40;11.43;;;6.30;59.40;;;;;;5030265;28;20431;-43
2022/03/10 02:34:52;;;;;;;15.73;12.10;;;6.10;59.20;;;;;;5030065;28;20560;-40
2022/03/10 02:37:19;;;;;;;18.23;12.30;;;6.20;59.40;;;;;;5021244;28;20516;-40
2022/03/10 02:39:45;;;;;;;16.60;11.70;;;6.00;59.90;;;;;;5029468;28;20428;-39
2022/03/10 02:42:15;;;;;;;16.30;12.07;;;6.20;61.40;;;;;;5030404;28;20491;-41
2022/03/10 02:44:48;;;;;;;14.90;12.33;;;6.40;59.40;;;;;;5030452;28;20429;-41
2022/03/10 02:47:15;;;;;;;18.10;12.00;;;6.30;61.40;;;;;;5030150;28;20421;-42
2022/03/10 02:49:42;;;;;;;16.30;12.00;;;6.30;59.30;;;;;;5027864;28;20444;-41
2022/03/10 02:52:08;;;;;;;17.23;12.90;;;6.30;58.10;;;;;;5017746;28;20484;-39
2022/03/10 02:54:34;;;;;;;17.00;11.77;;;6.50;57.90;;;;;;5027725;28;20513;-41
2022/03/10 02:57:00;;;;;;;17.30;12.23;;;6.60;57.70;;;;;;5029835;28;20536;-40
2022/03/10 02:59:26;;;;;;;14.20;11.83;;;6.60;57.50;;;;;;5029746;28;20191;-40
2022/03/10 03:01:52;;;;;;;17.67;11.47;;;6.40;57.30;;;;;;5028088;28;20425;-41
2022/03/10 03:04:18;;;;;;;15.90;10.60;;;6.20;57.50;;;;;;5029357;28;20197;-40
2022/03/10 03:06:43;;;;;;;16.30;11.20;;;6.20;57.70;;;;;;5020708;28;20635;-40
2022/03/10 03:09:10;;;;;;;15.67;11.60;;;6.40;58.80;;;;;;5026776;28;20273;-42
2022/03/10 03:11:36;;;;;;;19.83;12.67;;;6.30;57.60;;;;;;5029032;28;20813;-40
2022/03/10 03:14:04;;;;;;;16.37;11.30;;;6.60;57.40;;;;;;5029761;28;20476;-40
2022/03/10 03:16:30;;;;;;;13.97;11.23;;;6.70;57.20;;;;;;5029289;28;20476;-39
2022/03/10 03:18:56;;;;;;;16.63;12.80;;;6.60;56.80;;;;;;5029290;28;20623;-40
2022/03/10 03:21:25;;;;;;;17.63;12.60;;;6.80;56.70;;;;;;5023056;28;20936;-41
2022/03/10 03:23:51;;;;;;;17.10;12.13;;;6.90;56.50;;;;;;5021172;28;20697;-39
2022/03/10 03:26:17;;;;;;;16.57;12.10;;;6.90;56.90;;;;;;5028051;28;20508;-42
2022/03/10 03:28:43;;;;;;;14.67;10.80;;;6.40;58.50;;;;;;5029211;28;20281;-41
2022/03/10 03:31:10;;;;;;;15.27;11.70;;;6.10;60.10;;;;;;5028357;28;20421;-40
2022/03/10 03:33:37;;;;;;;17.37;12.80;;;5.90;61.20;;;;;;5029404;28;20429;-40
2022/03/10 03:36:03;;;;;;;17.63;11.37;;;5.70;62.60;;;;;;5026203;28;20472;-40
2022/03/10 03:38:29;;;;;;;15.50;12.10;;;5.40;63.40;;;;;;5020776;28;20452;-40
2022/03/10 03:40:55;;;;;;;19.40;11.27;;;5.20;65.00;;;;;;5028274;28;20456;-40
2022/03/10 03:43:21;;;;;;;16.97;10.97;;;5.00;65.60;;;;;;5029119;28;20253;-41
2022/03/10 03:45:46;;;;;;;17.20;11.10;;;5.00;66.50;;;;;;5027400;28;20260;-43
2022/03/10 03:48:12;;;;;;;13.90;10.20;;;4.90;69.00;;;;;;5029194;28;20202;-40
2022/03/10 03:50:37;;;;;;;15.63;10.67;;;4.80;71.00;;;;;;5028077;28;20194;-41
2022/03/10 03:53:03;;;;;;;17.50;11.67;;;4.80;71.60;;;;;;5018501;28;20240;-41
2022/03/10 03:55:29;;;;;;;15.47;11.67;;;4.90;71.10;;;;;;5028472;28;20264;-40
2022/03/10 03:57:54;;;;;;;14.47;10.83;;;4.70;72.10;;;;;;5029232;28;20206;-40
2022/03/10 04:00:20;;;;;;;16.20;12.30;;;4.70;73.60;;;;;;5027307;28;20198;-40
2022/03/10 04:02:46;;;;;;;13.07;9.80;;;5.00;75.30;;;;;;5028689;28;20586;-40
2022/03/10 04:05:12;;;;;;;16.00;10.53;;;4.90;76.40;;;;;;5028684;28;20236;-40
2022/03/10 04:07:39;;;;;;;14.63;10.10;;;4.70;75.00;;;;;;5015829;28;20450;-40
2022/03/10 04:10:07;;;;;;;14.57;9.47;;;5.00;74.50;;;;;;5027884;28;20516;-42
2022/03/10 04:12:33;;;;;;;15.40;10.83;;;4.80;74.90;;;;;;5028418;28;20463;-41
2022/03/10 04:14:59;;;;;;;13.63;9.70;;;4.90;74.70;;;;;;5026868;28;20480;-39
2022/03/10 04:17:25;;;;;;;14.53;10.53;;;4.90;75.40;;;;;;5028431;28;20424;-39
2022/03/10 04:19:51;;;;;;;14.37;10.57;;;4.80;75.70;;;;;;5027809;28;20418;-40
2022/03/10 04:22:17;;;;;;;14.20;9.77;;;4.90;75.00;;;;;;5022452;28;20436;-41
2022/03/10 04:24:43;;;;;;;12.00;9.67;;;4.90;75.20;;;;;;5025170;28;20638;-40
2022/03/10 04:27:08;;;;;;;15.47;10.60;;;4.80;76.80;;;;;;5027076;28;20264;-40
2022/03/10 04:29:34;;;;;;;15.07;10.30;;;4.70;76.80;;;;;;5027670;28;20407;-39
2022/03/10 04:32:00;;;;;;;13.73;9.70;;;5.00;76.60;;;;;;5027749;28;20252;-40
2022/03/10 04:34:26;;;;;;;14.90;10.50;;;4.90;77.10;;;;;;5026907;28;20198;-40
2022/03/10 04:36:51;;;;;;;13.43;10.47;;;4.70;77.40;;;;;;5023370;28;20293;-40
2022/03/10 04:39:17;;;;;;;12.70;9.70;;;4.60;77.60;;;;;;5022514;28;20624;-40
2022/03/10 04:41:43;;;;;;;13.83;10.43;;;4.60;78.90;;;;;;5025935;28;20209;-40
2022/03/10 04:44:10;;;;;;;12.67;10.70;;;4.60;78.40;;;;;;5026367;28;20244;-41
2022/03/10 04:46:36;;;;;;;16.00;11.20;;;4.60;79.00;;;;;;5027687;28;20482;-42
2022/03/10 04:49:02;;;;;;;15.00;10.10;;;4.80;79.60;;;;;;5027826;28;20484;-40
2022/03/10 04:51:28;;;;;;;14.97;10.20;;;4.80;77.70;;;;;;5024725;28;20471;-40
2022/03/10 04:53:54;;;;;;;13.17;9.63;;;4.90;76.70;;;;;;5021450;28;20789;-40
2022/03/10 04:56:20;;;;;;;14.87;10.40;;;4.80;75.20;;;;;;5027507;28;20268;-40
2022/03/10 04:58:46;;;;;;;17.63;11.30;;;5.00;73.40;;;;;;5027324;28;20418;-41
2022/03/10 05:01:12;;;;;;;19.13;11.73;;;5.00;73.20;;;;;;5026885;28;20421;-40
2022/03/10 05:03:38;;;;;;;12.80;10.20;;;5.20;73.00;;;;;;5027299;28;20426;-40
2022/03/10 05:06:04;;;;;;;14.87;11.30;;;5.10;70.90;;;;;;5026185;28;20475;-39
2022/03/10 05:08:30;;;;;;;14.23;10.27;;;5.50;70.00;;;;;;5017856;28;20465;-40
2022/03/10 05:10:55;;;;;;;16.90;11.17;;;5.50;70.10;;;;;;5026176;28;20233;-40
2022/03/10 05:13:21;;;;;;;15.13;10.77;;;5.20;72.10;;;;;;5026986;28;20201;-41
2022/03/10 05:15:47;;;;;;;12.87;10.40;;;4.90;73.60;;;;;;5026258;28;20210;-40
2022/03/10 05:18:13;;;;;;;13.40;10.13;;;4.60;75.60;;;;;;5027463;28;20758;-40
2022/03/10 05:20:38;;;;;;;12.53;9.57;;;4.60;76.60;;;;;;5026540;28;20190;-39
2022/03/10 05:23:05;;;;;;;12.33;9.80;;;4.60;78.20;;;;;;5017621;28;20217;-39
2022/03/10 05:25:34;;;;;;;13.30;10.00;;;4.40;80.00;;;;;;5026192;28;20208;-39
2022/03/10 05:27:59;;;;;;;15.40;11.03;;;4.60;79.10;;;;;;5027246;28;20451;-40
2022/03/10 05:30:25;;;;;;;13.93;10.20;;;4.80;76.70;;;;;;5005570;28;20720;-40
2022/03/10 05:32:51;;;;;;;13.70;10.33;;;5.10;75.90;;;;;;5018952;28;20182;-39
2022/03/10 05:35:18;;;;;;;15.57;10.87;;;4.90;74.20;;;;;;5027050;28;20453;-40
2022/03/10 05:37:46;;;;;;;14.57;10.80;;;5.10;72.80;;;;;;5017301;28;20596;-40
2022/03/10 05:40:20;;;;;;;12.93;9.17;;;5.20;71.90;;;;;;5024717;28;20429;-39
2022/03/10 05:42:46;;;;;;;15.43;10.00;;;5.30;71.50;;;;;;5021349;28;20517;-40
2022/03/10 05:45:13;;;;;;;12.37;9.70;;;5.20;73.10;;;;;;5020456;28;20595;-39
2022/03/10 05:47:39;;;;;;;12.60;9.70;;;5.10;74.30;;;;;;5025689;28;20425;-42
2022/03/10 05:50:09;;;;;;;14.97;9.70;;;4.80;75.70;;;;;;5021696;28;20803;-43
2022/03/10 05:52:35;;;;;;;14.40;10.63;;;5.00;78.10;;;;;;5022382;28;20433;-43
2022/03/10 05:55:01;;;;;;;14.40;10.37;;;4.60;78.00;;;;;;5026094;28;20493;-40
2022/03/10 05:57:27;;;;;;;13.37;9.80;;;4.40;78.80;;;;;;5026649;28;20432;-41
2022/03/10 05:59:53;;;;;;;12.97;10.43;;;4.50;79.00;;;;;;5026501;28;20424;-40
2022/03/10 06:02:19;;;;;;;14.80;9.70;;;4.30;80.40;;;;;;5026898;28;20420;-39
2022/03/10 06:04:44;;;;;;;11.57;9.20;;;4.60;80.90;;;;;;5027114;28;20212;-40
2022/03/10 06:07:11;;;;;;;13.53;10.10;;;4.60;81.50;;;;;;5023368;28;20261;-40
2022/03/10 06:09:37;;;;;;;12.13;9.60;;;4.60;81.40;;;;;;5017423;28;20186;-39
2022/03/10 06:12:03;;;;;;;13.67;9.30;;;4.40;79.90;;;;;;5026718;28;20409;-41
2022/03/10 06:14:29;;;;;;;13.20;9.70;;;4.80;81.20;;;;;;5026965;28;20417;-40
2022/03/10 06:16:54;;;;;;;14.00;10.00;;;5.00;77.90;;;;;;5026791;28;20472;-40
2022/03/10 06:19:20;;;;;;;12.80;9.43;;;4.90;77.90;;;;;;5027208;28;20286;-41
2022/03/10 06:21:47;;;;;;;14.10;8.87;;;5.10;74.40;;;;;;5026964;28;20190;-44
2022/03/10 06:24:13;;;;;;;13.47;9.90;;;5.30;74.70;;;;;;5021476;28;20179;-40
2022/03/10 06:26:39;;;;;;;11.83;9.40;;;5.20;76.30;;;;;;5029171;28;20425;-41
2022/03/10 06:29:05;;;;;;;12.37;9.40;;;5.40;76.70;;;;;;5030533;28;20187;-40
2022/03/10 06:31:32;;;;;;;15.70;10.30;;;5.30;73.20;;;;;;5029846;28;20429;-40
2022/03/10 06:33:58;;;;;;;12.13;9.33;;;5.70;71.60;;;;;;5030451;28;20445;-39
2022/03/10 06:36:25;;;;;;;12.80;10.00;;;6.00;70.10;;;;;;5030285;28;20498;-40
2022/03/10 06:38:50;;;;;;;12.23;9.80;;;6.10;69.10;;;;;;5020908;28;20450;-40
2022/03/10 06:41:16;;;;;;;12.80;10.03;;;6.10;68.30;;;;;;5028320;28;20429;-40
2022/03/10 06:43:42;;;;;;;11.70;9.20;;;6.00;67.40;;;;;;5030019;28;20190;-40
2022/03/10 06:46:07;;;;;;;13.10;10.10;;;6.40;67.30;;;;;;5030155;28;20334;-39
2022/03/10 06:48:34;;;;;;;12.20;9.50;;;6.10;66.20;;;;;;5048633;28;20427;-40
2022/03/10 06:51:00;;;;;;;13.93;10.53;;;6.40;67.30;;;;;;5033032;28;20186;-39
2022/03/10 06:53:26;;;;;;;16.60;9.50;;;6.50;67.30;;;;;;5019197;28;20434;-40
2022/03/10 06:55:52;;;;;;;15.47;10.27;;;6.40;65.70;;;;;;5027309;28;20496;-40
2022/03/10 06:58:18;;;;;;;13.37;10.40;;;6.50;65.20;;;;;;5028730;28;20471;-40
2022/03/10 07:00:44;;;;;;;14.70;10.77;;;6.50;64.60;;;;;;5024610;28;20425;-40
2022/03/10 07:03:10;;;;;;;14.67;10.60;;;6.70;64.20;;;;;;5030227;28;20767;-39
2022/03/10 07:05:36;;;;;;;13.43;10.57;;;6.90;63.80;;;;;;5029676;28;20218;-39
2022/03/10 07:08:02;;;;;;;14.37;10.03;;;6.80;63.70;;;;;;5023004;28;20449;-40
2022/03/10 07:10:28;;;;;;;17.00;10.87;;;6.80;63.60;;;;;;5020858;28;20433;-39
2022/03/10 07:12:54;;;;;;;14.10;9.90;;;7.00;63.60;;;;;;5022142;28;20487;-40
2022/03/10 07:15:20;;;;;;;14.27;10.00;;;7.10;63.20;;;;;;5021150;28;20461;-42
2022/03/10 07:17:46;;;;;;;14.20;10.40;;;6.90;62.80;;;;;;5029826;28;20421;-41
2022/03/10 07:20:14;;;;;;;14.10;10.87;;;7.10;63.40;;;;;;5026340;28;20434;-40
2022/03/10 07:22:40;;;;;;;13.97;10.30;;;7.20;64.00;;;;;;5026109;28;20186;-40
2022/03/10 07:25:07;;;;;;;15.00;10.83;;;7.40;63.60;;;;;;5022872;28;21111;-41
2022/03/10 07:27:32;;;;;;;14.90;11.47;;;7.40;63.10;;;;;;5024188;28;20715;-41
2022/03/10 07:29:58;;;;;;;20.60;12.03;;;7.50;62.00;;;;;;5025603;28;20686;-41
2022/03/10 07:32:27;;;;;;;15.30;11.23;;;7.90;61.20;;;;;;5027062;28;20190;-40
2022/03/10 07:34:53;;;;;;;16.60;11.00;;;8.10;60.10;;;;;;5025513;28;20192;-41
2022/03/10 07:37:19;;;;;;;17.93;11.40;;;8.00;59.80;;;;;;5027418;28;20421;-40
2022/03/10 07:39:45;;;;;;;15.23;10.90;;;8.10;59.20;;;;;;5021420;28;20436;-40
2022/03/10 07:42:10;;;;;;;15.10;10.80;;;8.50;59.20;;;;;;5027765;28;20694;-39
2022/03/10 07:44:37;;;;;;;16.93;12.03;;;8.60;59.40;;;;;;5027183;28;20588;-40
2022/03/10 07:47:03;;;;;;;17.20;11.80;;;9.00;59.10;;;;;;5028313;28;20325;-39
2022/03/10 07:49:29;;;;;;;18.30;11.77;;;8.90;59.60;;;;;;5028509;28;20421;-40
2022/03/10 07:51:56;;;;;;;15.90;11.00;;;9.30;58.30;;;;;;5028008;28;20417;-41
2022/03/10 07:54:22;;;;;;;15.00;10.90;;;9.50;57.80;;;;;;5018776;28;20475;-40
2022/03/10 07:56:48;;;;;;;14.97;12.07;;;9.70;58.10;;;;;;5027888;28;20626;-39
2022/03/10 07:59:14;;;;;;;16.43;11.80;;;9.70;57.30;;;;;;5028658;28;20512;-39
2022/03/10 08:01:39;;;;;;;15.90;11.57;;;10.20;56.10;;;;;;5027762;28;20483;-41
2022/03/10 08:04:05;;;;;;;15.13;10.87;;;10.40;55.50;;;;;;5030211;28;20233;-42
2022/03/10 08:06:31;;;;;;;16.93;12.77;;;10.30;55.50;;;;;;5028661;28;20187;-39
2022/03/10 08:08:57;;;;;;;16.70;12.40;;;10.50;54.70;;;;;;5020663;28;20191;-40
2022/03/10 08:11:22;;;;;;;16.87;11.33;;;10.70;54.60;;;;;;5026010;28;20179;-39
2022/03/10 08:13:48;;;;;;;16.57;12.07;;;10.70;54.20;;;;;;5028654;28;20421;-39
2022/03/10 08:16:14;;;;;;;18.07;12.10;;;11.00;54.50;;;;;;5028387;28;20452;-39
2022/03/10 08:18:40;;;;;;;16.60;11.60;;;11.00;53.40;;;;;;5028122;28;20208;-41
2022/03/10 08:21:06;;;;;;;14.07;12.00;;;11.00;53.10;;;;;;5027742;28;20436;-40
2022/03/10 08:23:32;;;;;;;15.10;11.80;;;11.20;53.80;;;;;;5029405;28;20669;-39
2022/03/10 08:25:57;;;;;;;17.73;12.43;;;11.30;53.70;;;;;;5020118;28;20421;-39
2022/03/10 08:28:23;;;;;;;19.80;13.10;;;11.20;53.30;;;;;;5028096;28;20236;-39
2022/03/10 08:30:49;;;;;;;17.47;13.30;;;11.50;53.60;;;;;;5027732;28;20190;-39
2022/03/10 08:33:15;;;;;;;17.63;12.93;;;11.40;54.20;;;;;;5027681;28;20191;-39
2022/03/10 08:35:40;;;;;;;18.00;13.50;;;11.50;54.20;;;;;;5028220;28;20647;-39
2022/03/10 08:38:07;;;;;;;21.40;14.77;;;11.80;54.50;;;;;;5024968;28;22350;-40
2022/03/10 08:40:33;;;;;;;20.97;13.40;;;11.70;53.60;;;;;;5025259;28;20201;-40
2022/03/10 08:43:00;;;;;;;19.83;13.50;;;11.80;53.80;;;;;;5028044;28;20429;-39
2022/03/10 08:45:25;;;;;;;19.00;13.30;;;11.90;53.40;;;;;;5026918;28;20483;-41
2022/03/10 08:47:53;;;;;;;20.47;13.03;;;12.10;54.30;;;;;;5027732;28;20449;-39
2022/03/10 08:50:19;;;;;;;20.40;14.20;;;12.20;53.30;;;;;;5026009;28;20252;-39
2022/03/10 08:52:44;;;;;;;20.83;14.30;;;12.50;54.70;;;;;;5027813;28;20413;-40
2022/03/10 08:55:11;;;;;;;19.87;13.07;;;12.60;53.20;;;;;;5018983;28;20469;-40
2022/03/10 08:57:37;;;;;;;20.47;14.50;;;12.70;53.00;;;;;;5028156;28;20592;-39
2022/03/10 09:00:08;;;;;;;22.30;15.50;;;12.80;53.00;;;;;;5027133;28;20426;-40
2022/03/10 09:02:34;;;;;;;20.67;15.10;;;13.00;52.50;;;;;;5027529;28;20755;-39
2022/03/10 09:05:00;;;;;;;21.63;15.63;;;13.10;52.70;;;;;;5026316;28;21075;-40
2022/03/10 09:07:26;;;;;;;20.50;15.13;;;13.20;51.50;;;;;;5026419;28;20425;-39
2022/03/10 09:09:51;;;;;;;19.50;14.33;;;13.30;51.30;;;;;;5017987;28;20654;-41
2022/03/10 09:12:17;;;;;;;19.87;14.97;;;13.40;51.00;;;;;;5027353;28;20483;-39
2022/03/10 09:14:43;;;;;;;21.53;16.00;;;13.60;51.90;;;;;;5027682;28;20277;-40
2022/03/10 09:17:08;;;;;;;23.20;16.93;;;13.70;51.90;;;;;;5027434;28;20189;-40
2022/03/10 09:19:34;;;;;;;22.73;15.00;;;14.00;51.80;;;;;;5027136;28;20205;-39
2022/03/10 09:22:01;;;;;;;22.00;15.37;;;14.20;52.20;;;;;;5029614;28;20683;-40
2022/03/10 09:24:27;;;;;;;24.00;16.20;;;14.20;50.60;;;;;;5024801;28;20469;-40
2022/03/10 09:26:53;;;;;;;22.23;17.00;;;14.10;48.40;;;;;;5026497;28;20476;-40
2022/03/10 09:29:19;;;;;;;24.17;16.17;;;14.20;48.30;;;;;;5027528;28;20457;-40
2022/03/10 09:31:44;;;;;;;24.17;17.13;;;14.30;48.30;;;;;;5026321;28;20683;-41
2022/03/10 09:34:10;;;;;;;26.20;17.70;;;14.40;47.90;;;;;;5027534;28;20285;-41
2022/03/10 09:36:36;;;;;;;23.50;18.00;;;14.50;47.20;;;;;;5027311;28;20586;-40
2022/03/10 09:39:02;;;;;;;22.80;16.30;;;14.60;46.30;;;;;;5019816;28;20270;-41
2022/03/10 09:41:28;;;;;;;24.43;16.93;;;14.50;45.60;;;;;;5005552;28;20276;-39
2022/03/10 09:43:55;;;;;;;24.17;16.87;;;14.50;45.50;;;;;;5006671;28;20423;-40
2022/03/10 09:46:21;;;;;;;23.33;17.20;;;14.50;46.10;;;;;;5024038;28;20753;-42
2022/03/10 09:48:47;;;;;;;26.70;17.30;;;14.60;46.40;;;;;;5025966;28;20700;-42
2022/03/10 09:51:13;;;;;;;27.20;17.47;;;14.80;45.90;;;;;;5026618;28;20425;-40
2022/03/10 09:53:39;;;;;;;24.37;16.50;;;14.90;44.20;;;;;;5023142;28;20453;-40
2022/03/10 09:56:05;;;;;;;25.90;17.77;;;14.90;44.40;;;;;;5021224;28;20855;-40
2022/03/10 09:58:31;;;;;;;25.53;17.53;;;15.10;44.00;;;;;;5029251;28;20178;-39
2022/03/10 10:00:58;;;;;;;23.17;16.90;;;15.00;43.70;;;;;;5030089;28;20563;-40
2022/03/10 10:03:24;;;;;;;26.73;15.83;;;15.00;44.20;;;;;;5029341;28;20428;-39
2022/03/10 10:05:50;;;;;;;24.70;17.17;;;15.10;44.70;;;;;;5031123;28;20421;-41
2022/03/10 10:08:17;;;;;;;20.60;15.70;;;15.30;44.70;;;;;;5030901;28;20545;-41
2022/03/10 10:10:45;;;;;;;22.57;15.97;;;15.50;43.60;;;;;;5023074;28;20593;-40
2022/03/10 10:13:43;;;;;;;21.57;15.67;;;15.50;43.30;;;;;;5030886;28;20780;-40
2022/03/10 10:16:19;;;;;;;22.27;15.47;;;15.60;43.60;;;;;;5019360;28;20536;-42
2022/03/10 10:18:44;;;;;;;23.77;16.33;;;15.80;43.50;;;;;;5030771;28;20421;-41
2022/03/10 10:21:12;;;;;;;24.80;15.67;;;15.80;42.20;;;;;;5030150;28;20429;-40
2022/03/10 10:23:39;;;;;;;22.20;16.50;;;16.00;42.20;;;;;;5041495;28;20741;-42
2022/03/10 10:26:10;;;;;;;22.20;15.63;;;16.00;42.30;;;;;;5022941;28;20433;-40
2022/03/10 10:28:39;;;;;;;23.27;16.10;;;16.00;41.60;;;;;;5029014;28;20421;-42
2022/03/10 10:31:12;;;;;;;22.83;15.23;;;16.10;41.30;;;;;;5030005;28;20441;-44
2022/03/10 10:33:42;;;;;;;21.80;15.40;;;16.10;41.30;;;;;;5030480;28;20523;-40
2022/03/10 10:36:26;;;;;;;22.60;16.67;;;15.90;40.10;;;;;;5030162;28;20544;-40
2022/03/10 10:38:57;;;;;;;20.93;15.83;;;15.90;40.60;;;;;;5027427;28;20452;-40
2022/03/10 10:41:31;;;;;;;23.90;15.77;;;15.90;40.70;;;;;;5017501;28;20409;-40
2022/03/10 10:44:05;;;;;;;23.60;16.07;;;16.00;40.30;;;;;;5030191;28;20425;-42
2022/03/10 10:46:32;;;;;;;24.17;15.77;;;16.10;40.40;;;;;;5030060;28;20466;-40
2022/03/10 10:49:15;;;;;;;20.90;15.57;;;16.10;40.50;;;;;;5030212;28;20822;-44
2022/03/10 10:51:45;;;;;;;20.17;15.40;;;16.20;41.10;;;;;;5029472;28;20778;-40
2022/03/10 10:54:31;;;;;;;21.03;15.07;;;16.30;40.00;;;;;;5024627;28;20440;-40
2022/03/10 10:57:02;;;;;;;22.70;15.70;;;16.30;39.80;;;;;;5022030;28;20801;-40
2022/03/10 10:59:34;;;;;;;21.97;15.30;;;16.20;39.70;;;;;;5029985;28;20427;-41
2022/03/10 11:02:12;;;;;;;17.20;14.13;;;16.10;39.40;;;;;;5030000;28;20510;-39
2022/03/10 11:04:40;;;;;;;18.17;14.60;;;16.00;39.40;;;;;;5030190;28;20478;-40
2022/03/10 11:07:08;;;;;;;21.27;15.50;;;16.00;40.00;;;;;;5029606;28;20506;-41
2022/03/10 11:09:34;;;;;;;19.40;14.57;;;16.10;40.80;;;;;;5021449;28;20434;-41
2022/03/10 11:11:59;;;;;;;19.10;13.83;;;16.00;39.60;;;;;;5024532;28;20474;-40
2022/03/10 11:14:25;;;;;;;17.20;13.70;;;16.00;39.40;;;;;;5029621;28;20202;-41
2022/03/10 11:16:52;;;;;;;19.93;14.23;;;15.90;39.00;;;;;;5029306;28;20280;-42
2022/03/10 11:19:25;;;;;;;19.10;14.03;;;16.00;40.20;;;;;;5029650;28;20198;-40
2022/03/10 11:22:02;;;;;;;18.30;14.03;;;16.10;39.80;;;;;;5030893;28;20417;-41
2022/03/10 11:25:06;;;;;;;15.70;13.50;;;16.20;39.40;;;;;;5037367;28;20432;-41
2022/03/10 11:28:04;;;;;;;19.30;14.17;;;16.20;39.60;;;;;;5025799;28;20789;-40
2022/03/10 11:30:32;;;;;;;17.50;13.03;;;16.20;38.70;;;;;;5028492;28;20661;-39
2022/03/10 11:33:02;;;;;;;15.13;12.33;;;16.40;39.30;;;;;;5027841;28;20421;-43
2022/03/10 11:35:40;;;;;;;18.97;13.20;;;16.30;38.30;;;;;;5029389;28;21003;-40
2022/03/10 11:38:05;;;;;;;18.43;13.27;;;16.40;39.70;;;;;;5028117;28;20417;-40
2022/03/10 11:40:56;;;;;;;15.83;12.33;;;16.60;39.40;;;;;;5018283;28;20492;-40
2022/03/10 11:43:33;;;;;;;15.03;11.90;;;16.80;39.70;;;;;;5027964;28;20183;-43
2022/03/10 11:46:17;;;;;;;13.67;11.47;;;16.70;37.80;;;;;;5028025;28;20432;-41
2022/03/10 11:48:43;;;;;;;14.83;11.83;;;16.70;38.00;;;;;;5028955;28;20421;-41
2022/03/10 11:51:11;;;;;;;14.83;11.10;;;16.60;38.40;;;;;;5027044;28;20794;-41
2022/03/10 11:54:04;;;;;;;13.70;10.97;;;16.60;37.80;;;;;;5029108;28;20866;-40
2022/03/10 11:56:56;;;;;;;14.27;10.90;;;16.90;38.60;;;;;;5016649;28;20854;-40
2022/03/10 11:59:23;;;;;;;14.33;11.27;;;17.00;37.70;;;;;;5026402;28;20491;-40
2022/03/10 12:01:49;;;;;;;13.10;11.50;;;17.10;37.90;;;;;;5028039;28;20721;-40
2022/03/10 12:04:17;;;;;;;15.50;11.70;;;17.30;39.00;;;;;;5007679;28;20496;-40
2022/03/10 12:07:03;;;;;;;12.50;10.03;;;17.60;38.60;;;;;;4999119;28;20252;-44
2022/03/10 12:09:31;;;;;;;12.70;9.90;;;17.80;38.80;;;;;;5012299;28;20417;-40
2022/03/10 12:12:16;;;;;;;13.87;9.67;;;17.90;37.90;;;;;;5021270;28;20448;-40
2022/03/10 12:14:44;;;;;;;11.10;9.90;;;17.90;37.50;;;;;;5028507;28;20794;-40
2022/03/10 12:17:45;;;;;;;11.10;8.87;;;17.80;37.00;;;;;;5028432;28;20457;-40
2022/03/10 12:20:18;;;;;;;10.50;8.90;;;17.90;38.40;;;;;;5023256;28;20428;-41
2022/03/10 12:23:03;;;;;;;12.90;8.87;;;17.90;36.90;;;;;;5017179;28;20798;-42
2022/03/10 12:25:47;;;;;;;13.53;8.80;;;18.00;37.30;;;;;;5019645;28;20425;-41
2022/03/10 12:28:29;;;;;;;8.80;6.70;;;17.90;36.80;;;;;;5023419;28;20436;-45
2022/03/10 12:31:10;;;;;;;9.63;7.50;;;17.80;37.80;;;;;;5027447;28;20575;-41
2022/03/10 12:33:47;;;;;;;8.87;7.53;;;18.00;38.10;;;;;;5028337;28;20428;-43
2022/03/10 12:36:15;;;;;;;8.10;6.60;;;18.10;36.90;;;;;;5027882;28;20542;-40
2022/03/10 12:38:45;;;;;;;7.33;6.50;;;17.80;37.30;;;;;;5028623;28;20421;-41
2022/03/10 12:41:14;;;;;;;7.60;6.27;;;17.90;37.20;;;;;;5015891;28;20528;-41
2022/03/10 12:43:39;;;;;;;7.60;6.10;;;17.80;36.10;;;;;;5026607;28;20417;-41